Time;durP1;ratioP1;P1;durP2;ratioP2;P2;SDS_P1;SDS_P2;PMS_P1;PMS_P2;Temp;Humidity;BMP_temperature;BMP_pressure;BME280_temperature;BME280_humidity;BME280_pressure;Samples;Min_cycle;Max_cycle;Signal;HPM_P1;HPM_P2
2022/01/09 00:00:08;;;;;;;6.30;4.50;;;;;;;;;;5022369;28;20538;-80
2022/01/09 00:02:34;;;;;;;6.90;4.73;;;;;;;;;;5023673;28;20875;-79
2022/01/09 00:05:01;;;;;;;5.27;4.73;;;;;;;;;;5024068;28;20550;-80
2022/01/09 00:07:28;;;;;;;4.70;4.30;;;;;;;;;;5026690;28;20450;-79
2022/01/09 00:09:56;;;;;;;7.73;4.80;;;;;;;;;;5022043;28;20477;-80
2022/01/09 00:12:22;;;;;;;6.20;5.10;;;;;;;;;;5020392;28;20457;-79
2022/01/09 00:14:48;;;;;;;7.57;5.00;;;;;;;;;;5026104;28;20542;-80
2022/01/09 00:17:15;;;;;;;5.63;4.90;;;;;;;;;;5025483;28;20485;-79
2022/01/09 00:19:41;;;;;;;5.30;4.33;;;;;;;;;;5023337;28;20831;-80
2022/01/09 00:22:08;;;;;;;5.50;4.83;;;;;;;;;;5024003;28;20949;-78
2022/01/09 00:24:35;;;;;;;6.17;4.53;;;;;;;;;;5022626;28;20886;-80
2022/01/09 00:27:01;;;;;;;10.63;5.20;;;;;;;;;;5023010;28;20488;-80
2022/01/09 00:29:27;;;;;;;4.70;4.30;;;;;;;;;;5021635;28;20485;-80
2022/01/09 00:31:54;;;;;;;5.53;5.03;;;;;;;;;;5020734;28;20464;-79
2022/01/09 00:34:20;;;;;;;5.50;5.00;;;;;;;;;;5018762;28;21040;-80
2022/01/09 00:36:46;;;;;;;7.00;5.60;;;;;;;;;;5021399;28;20481;-80
2022/01/09 00:39:14;;;;;;;5.13;4.33;;;;;;;;;;5021368;28;20453;-80
2022/01/09 00:41:40;;;;;;;5.27;4.70;;;;;;;;;;5022087;28;20465;-80
2022/01/09 00:44:06;;;;;;;5.30;4.90;;;;;;;;;;5023841;28;20489;-80
2022/01/09 00:46:34;;;;;;;6.17;5.27;;;;;;;;;;5024418;28;20482;-80
2022/01/09 00:49:00;;;;;;;6.07;5.37;;;;;;;;;;5021986;28;20535;-78
2022/01/09 00:51:26;;;;;;;6.90;4.43;;;;;;;;;;5027313;28;20454;-80
2022/01/09 00:53:53;;;;;;;7.37;4.50;;;;;;;;;;5024438;28;20570;-78
2022/01/09 00:56:20;;;;;;;5.30;4.80;;;;;;;;;;5024930;28;21009;-80
2022/01/09 00:58:46;;;;;;;6.33;4.20;;;;;;;;;;5022319;28;20465;-80
2022/01/09 01:01:13;;;;;;;4.87;4.33;;;;;;;;;;5022840;28;20473;-79
2022/01/09 01:03:39;;;;;;;6.40;4.97;;;;;;;;;;5019801;28;20520;-80
2022/01/09 01:06:05;;;;;;;4.57;4.17;;;;;;;;;;5018658;28;21013;-79
2022/01/09 01:08:31;;;;;;;5.60;4.67;;;;;;;;;;5022830;28;20460;-80
2022/01/09 01:10:58;;;;;;;8.70;4.87;;;;;;;;;;5019218;28;20477;-80
2022/01/09 01:13:25;;;;;;;7.70;4.73;;;;;;;;;;5021956;28;20453;-80
2022/01/09 01:15:52;;;;;;;4.60;4.10;;;;;;;;;;5020283;28;21220;-79
2022/01/09 01:18:18;;;;;;;4.60;4.20;;;;;;;;;;5023282;28;20463;-79
2022/01/09 01:20:44;;;;;;;6.10;5.10;;;;;;;;;;5021620;28;20465;-78
2022/01/09 01:23:10;;;;;;;6.63;5.03;;;;;;;;;;5024159;28;20467;-80
2022/01/09 01:25:37;;;;;;;5.13;4.63;;;;;;;;;;5019428;28;20484;-79
2022/01/09 01:28:03;;;;;;;4.83;4.10;;;;;;;;;;5022305;28;20525;-76
2022/01/09 01:30:31;;;;;;;5.50;5.00;;;;;;;;;;5018696;28;20502;-80
2022/01/09 01:32:57;;;;;;;5.47;5.00;;;;;;;;;;5023611;28;20543;-80
2022/01/09 01:35:23;;;;;;;6.43;5.67;;;;;;;;;;5021773;28;20488;-80
2022/01/09 01:37:49;;;;;;;5.93;4.77;;;;;;;;;;5021593;28;20462;-80
2022/01/09 01:40:17;;;;;;;6.60;5.70;;;;;;;;;;5022219;28;20481;-80
2022/01/09 01:42:43;;;;;;;6.87;6.23;;;;;;;;;;5022258;28;20460;-78
2022/01/09 01:45:10;;;;;;;5.30;4.90;;;;;;;;;;5024005;28;20554;-79
2022/01/09 01:47:38;;;;;;;6.47;5.23;;;;;;;;;;5021970;28;20454;-80
2022/01/09 01:50:05;;;;;;;6.30;5.30;;;;;;;;;;5021136;28;20500;-80
2022/01/09 01:52:36;;;;;;;5.47;5.00;;;;;;;;;;5019820;28;20974;-80
2022/01/09 01:55:03;;;;;;;5.70;5.20;;;;;;;;;;5020007;28;21014;-80
2022/01/09 01:57:30;;;;;;;6.37;4.33;;;;;;;;;;5021750;28;20454;-80
2022/01/09 01:59:56;;;;;;;5.90;4.77;;;;;;;;;;5022104;28;20478;-80
2022/01/09 02:02:25;;;;;;;6.20;5.63;;;;;;;;;;5021854;28;20464;-80
2022/01/09 02:04:53;;;;;;;5.30;4.80;;;;;;;;;;5016189;28;20511;-80
2022/01/09 02:07:19;;;;;;;5.93;5.27;;;;;;;;;;5022140;28;20469;-80
2022/01/09 02:09:46;;;;;;;5.20;4.70;;;;;;;;;;5021351;28;20487;-78
2022/01/09 02:12:12;;;;;;;5.70;5.13;;;;;;;;;;5020549;28;20456;-80
2022/01/09 02:14:43;;;;;;;5.93;5.33;;;;;;;;;;5021291;28;20493;-80
2022/01/09 02:17:09;;;;;;;5.33;4.80;;;;;;;;;;5022613;28;20982;-80
2022/01/09 02:19:35;;;;;;;6.00;5.40;;;;;;;;;;5022476;28;20480;-79
2022/01/09 02:22:03;;;;;;;5.27;4.83;;;;;;;;;;5021772;28;20469;-80
2022/01/09 02:24:29;;;;;;;6.10;5.53;;;;;;;;;;5020519;28;20466;-80
2022/01/09 02:26:55;;;;;;;5.03;4.63;;;;;;;;;;5018273;28;20476;-80
2022/01/09 02:29:22;;;;;;;5.80;5.30;;;;;;;;;;5023119;28;20505;-80
2022/01/09 02:31:48;;;;;;;6.47;5.93;;;;;;;;;;5022340;28;20864;-80
2022/01/09 02:34:14;;;;;;;6.50;5.67;;;;;;;;;;5021517;28;20484;-80
2022/01/09 02:36:40;;;;;;;5.23;4.83;;;;;;;;;;5023511;28;20503;-80
2022/01/09 02:39:08;;;;;;;6.50;5.67;;;;;;;;;;5020854;28;20468;-80
2022/01/09 02:41:35;;;;;;;5.40;4.90;;;;;;;;;;5023277;28;20444;-80
2022/01/09 02:44:07;;;;;;;5.37;4.77;;;;;;;;;;5021171;28;21035;-80
2022/01/09 02:46:43;;;;;;;5.87;5.27;;;;;;;;;;5020618;28;20493;-80
2022/01/09 02:49:09;;;;;;;5.00;4.60;;;;;;;;;;5022418;28;20971;-80
2022/01/09 02:51:36;;;;;;;5.57;5.13;;;;;;;;;;5023522;28;20453;-80
2022/01/09 02:55:04;;;;;;;6.00;5.40;;;;;;;;;;5023456;28;20978;-80
2022/01/09 02:56:51;;;;;;;5.97;5.37;;;;;;;;;;5021360;28;20476;-80
2022/01/09 02:59:17;;;;;;;7.57;5.80;;;;;;;;;;5022075;28;20472;-81
2022/01/09 03:01:43;;;;;;;6.70;5.17;;;;;;;;;;5024338;28;20466;-79
2022/01/09 03:04:10;;;;;;;6.57;5.97;;;;;;;;;;5021018;28;20487;-80
2022/01/09 03:06:36;;;;;;;6.00;5.50;;;;;;;;;;5023240;28;20484;-80
2022/01/09 03:09:05;;;;;;;6.33;5.70;;;;;;;;;;5020143;28;20452;-81
2022/01/09 03:11:32;;;;;;;6.73;6.13;;;;;;;;;;5018512;28;20466;-81
2022/01/09 03:13:59;;;;;;;7.23;6.47;;;;;;;;;;5018138;28;20450;-80
2022/01/09 03:16:26;;;;;;;7.13;6.40;;;;;;;;;;5020857;28;20465;-80
2022/01/09 03:18:52;;;;;;;6.87;6.27;;;;;;;;;;5020493;28;21295;-80
2022/01/09 03:21:18;;;;;;;6.33;5.73;;;;;;;;;;5022486;28;20693;-79
2022/01/09 03:23:44;;;;;;;6.77;5.90;;;;;;;;;;5021097;28;20456;-80
2022/01/09 03:26:11;;;;;;;5.63;5.03;;;;;;;;;;5023008;28;20484;-81
2022/01/09 03:28:37;;;;;;;5.77;5.20;;;;;;;;;;5022328;28;20479;-80
2022/01/09 03:31:05;;;;;;;6.03;5.50;;;;;;;;;;5022232;28;20472;-80
2022/01/09 03:33:31;;;;;;;5.70;5.20;;;;;;;;;;5022384;28;20658;-81
2022/01/09 03:35:57;;;;;;;6.20;5.63;;;;;;;;;;5024501;28;20481;-81
2022/01/09 03:38:23;;;;;;;5.93;5.40;;;;;;;;;;5023005;28;20472;-80
2022/01/09 03:40:50;;;;;;;5.90;5.40;;;;;;;;;;5022478;28;20477;-80
2022/01/09 03:43:17;;;;;;;6.00;5.47;;;;;;;;;;5021996;28;20895;-80
2022/01/09 03:45:44;;;;;;;5.20;4.70;;;;;;;;;;5021727;28;20476;-79
2022/01/09 03:48:11;;;;;;;6.70;5.43;;;;;;;;;;5020987;28;20511;-80
2022/01/09 03:50:37;;;;;;;5.80;5.20;;;;;;;;;;5023560;28;20469;-80
2022/01/09 03:53:06;;;;;;;5.67;5.13;;;;;;;;;;5023688;28;20497;-80
2022/01/09 03:55:33;;;;;;;5.77;5.10;;;;;;;;;;5023444;28;20492;-80
2022/01/09 03:57:59;;;;;;;6.43;5.47;;;;;;;;;;5025098;28;20463;-77
2022/01/09 04:00:25;;;;;;;6.40;5.80;;;;;;;;;;5025047;28;20495;-80
2022/01/09 04:02:53;;;;;;;5.37;4.97;;;;;;;;;;5021295;28;20529;-80
2022/01/09 04:05:21;;;;;;;8.43;5.93;;;;;;;;;;5025388;28;20499;-81
2022/01/09 04:07:47;;;;;;;5.93;5.33;;;;;;;;;;5027389;28;20442;-80
2022/01/09 04:10:13;;;;;;;6.70;5.20;;;;;;;;;;5030352;28;20472;-80
2022/01/09 04:12:47;;;;;;;6.17;5.63;;;;;;;;;;5027533;28;20476;-81
2022/01/09 04:15:14;;;;;;;7.70;6.90;;;;;;;;;;5028109;28;20546;-81
2022/01/09 04:17:49;;;;;;;6.90;6.30;;;;;;;;;;5028477;28;20465;-81
2022/01/09 04:20:16;;;;;;;6.57;5.63;;;;;;;;;;5024079;28;20476;-80
2022/01/09 04:22:43;;;;;;;6.33;5.73;;;;;;;;;;5026334;28;20461;-78
2022/01/09 04:25:10;;;;;;;7.37;5.77;;;;;;;;;;5026301;28;20526;-80
2022/01/09 04:27:37;;;;;;;6.40;5.83;;;;;;;;;;5025299;28;20461;-80
2022/01/09 04:30:04;;;;;;;5.97;5.30;;;;;;;;;;5023566;28;20476;-81
2022/01/09 04:32:30;;;;;;;8.73;6.50;;;;;;;;;;5027135;28;20464;-81
2022/01/09 04:34:57;;;;;;;6.97;6.33;;;;;;;;;;5024726;28;20466;-81
2022/01/09 04:37:23;;;;;;;7.07;6.30;;;;;;;;;;5027103;28;20469;-80
2022/01/09 04:39:52;;;;;;;5.73;5.20;;;;;;;;;;5024973;28;20476;-81
2022/01/09 04:42:19;;;;;;;6.80;6.10;;;;;;;;;;5026933;28;20493;-80
2022/01/09 04:44:45;;;;;;;5.90;5.30;;;;;;;;;;5026750;28;20511;-80
2022/01/09 04:47:15;;;;;;;6.07;5.57;;;;;;;;;;5026620;28;21008;-80
2022/01/09 04:49:44;;;;;;;6.03;5.47;;;;;;;;;;5025851;28;20515;-81
2022/01/09 04:52:14;;;;;;;6.33;5.73;;;;;;;;;;5027168;28;20490;-81
2022/01/09 04:54:41;;;;;;;6.13;5.50;;;;;;;;;;5026964;28;20470;-81
2022/01/09 04:57:08;;;;;;;5.37;4.83;;;;;;;;;;5023697;28;20488;-81
2022/01/09 04:59:35;;;;;;;6.33;5.83;;;;;;;;;;5024814;28;20468;-81
2022/01/09 05:02:01;;;;;;;5.90;5.40;;;;;;;;;;5027471;28;20456;-78
2022/01/09 05:04:27;;;;;;;6.27;5.70;;;;;;;;;;5023752;28;20484;-81
2022/01/09 05:06:53;;;;;;;6.00;5.40;;;;;;;;;;5024235;28;20491;-80
2022/01/09 05:09:20;;;;;;;6.20;5.70;;;;;;;;;;5025931;28;20511;-80
2022/01/09 05:11:46;;;;;;;6.60;5.93;;;;;;;;;;5026611;28;20494;-81
2022/01/09 05:14:13;;;;;;;6.57;5.97;;;;;;;;;;5026027;28;20473;-80
2022/01/09 05:16:43;;;;;;;6.20;5.60;;;;;;;;;;5026418;28;20468;-80
2022/01/09 05:19:17;;;;;;;6.03;5.53;;;;;;;;;;5025992;28;20554;-80
2022/01/09 05:21:43;;;;;;;6.50;5.73;;;;;;;;;;5026065;28;20484;-80
2022/01/09 05:24:10;;;;;;;6.73;6.00;;;;;;;;;;5026459;28;20464;-80
2022/01/09 05:26:36;;;;;;;10.23;7.70;;;;;;;;;;5025564;28;20492;-80
2022/01/09 05:29:02;;;;;;;5.93;5.40;;;;;;;;;;5025064;28;20879;-80
2022/01/09 05:31:30;;;;;;;6.70;6.10;;;;;;;;;;5026055;28;20468;-80
2022/01/09 05:33:56;;;;;;;6.50;5.80;;;;;;;;;;5024209;28;20816;-80
2022/01/09 05:36:22;;;;;;;8.23;6.30;;;;;;;;;;5024937;28;20892;-80
2022/01/09 05:38:49;;;;;;;6.43;5.83;;;;;;;;;;5020300;28;21177;-80
2022/01/09 05:41:15;;;;;;;5.90;5.37;;;;;;;;;;5022495;28;20504;-80
2022/01/09 05:43:41;;;;;;;5.60;5.00;;;;;;;;;;5024872;28;20960;-80
2022/01/09 05:46:08;;;;;;;5.37;4.87;;;;;;;;;;5025776;28;20480;-81
2022/01/09 05:48:35;;;;;;;5.90;5.40;;;;;;;;;;5025269;28;20461;-80
2022/01/09 05:51:02;;;;;;;5.37;4.97;;;;;;;;;;5023343;28;20789;-80
2022/01/09 05:53:28;;;;;;;4.80;4.40;;;;;;;;;;5021388;28;20449;-80
2022/01/09 05:55:54;;;;;;;5.17;4.67;;;;;;;;;;5023220;28;20492;-80
2022/01/09 05:58:20;;;;;;;5.57;5.10;;;;;;;;;;5024176;28;20468;-80
2022/01/09 06:00:46;;;;;;;5.47;5.07;;;;;;;;;;5024001;28;20548;-80
2022/01/09 06:03:13;;;;;;;5.83;5.33;;;;;;;;;;5024864;28;20453;-79
2022/01/09 06:05:40;;;;;;;4.83;4.40;;;;;;;;;;5025982;28;20481;-79
2022/01/09 06:08:07;;;;;;;5.47;4.97;;;;;;;;;;5023059;28;20960;-80
2022/01/09 06:10:33;;;;;;;5.83;5.23;;;;;;;;;;5021412;28;21025;-80
2022/01/09 06:12:59;;;;;;;6.20;5.60;;;;;;;;;;5024833;28;20998;-81
2022/01/09 06:15:25;;;;;;;6.60;5.07;;;;;;;;;;5024267;28;20488;-79
2022/01/09 06:17:52;;;;;;;5.67;5.20;;;;;;;;;;5024428;28;20442;-80
2022/01/09 06:20:18;;;;;;;5.80;5.30;;;;;;;;;;5024976;28;20476;-80
2022/01/09 06:22:46;;;;;;;5.13;4.73;;;;;;;;;;5023986;28;20461;-80
2022/01/09 06:25:12;;;;;;;6.40;5.80;;;;;;;;;;5023191;28;20476;-79
2022/01/09 06:27:39;;;;;;;6.83;6.23;;;;;;;;;;5023125;28;20460;-80
2022/01/09 06:30:06;;;;;;;7.77;5.40;;;;;;;;;;5021627;28;20542;-80
2022/01/09 06:32:32;;;;;;;6.57;6.00;;;;;;;;;;5023946;28;20460;-80
2022/01/09 06:34:58;;;;;;;6.43;5.73;;;;;;;;;;5024134;28;20512;-81
2022/01/09 06:37:24;;;;;;;6.17;5.63;;;;;;;;;;5025785;28;20456;-80
2022/01/09 06:39:52;;;;;;;6.53;5.93;;;;;;;;;;5024981;28;20476;-79
2022/01/09 06:42:18;;;;;;;6.93;6.27;;;;;;;;;;5025045;28;20448;-80
2022/01/09 06:44:45;;;;;;;7.47;6.77;;;;;;;;;;5025021;28;20501;-80
2022/01/09 06:47:11;;;;;;;7.40;6.03;;;;;;;;;;5024266;28;20492;-80
2022/01/09 06:49:37;;;;;;;8.80;6.87;;;;;;;;;;5022707;28;20474;-80
2022/01/09 06:52:04;;;;;;;6.17;5.53;;;;;;;;;;5024413;28;20469;-80
2022/01/09 06:54:31;;;;;;;7.13;6.43;;;;;;;;;;5023770;28;20474;-80
2022/01/09 06:56:58;;;;;;;7.70;6.67;;;;;;;;;;5023331;28;20473;-80
2022/01/09 06:59:24;;;;;;;7.23;6.50;;;;;;;;;;5023558;28;20468;-80
2022/01/09 07:01:51;;;;;;;9.93;7.43;;;;;;;;;;5024504;28;20457;-80
2022/01/09 07:04:17;;;;;;;8.70;7.40;;;;;;;;;;5024211;28;20540;-80
2022/01/09 07:06:43;;;;;;;11.57;7.20;;;;;;;;;;5022810;28;20902;-80
2022/01/09 07:09:10;;;;;;;8.97;7.47;;;;;;;;;;5022336;28;20449;-80
2022/01/09 07:11:36;;;;;;;9.97;8.30;;;;;;;;;;5024297;28;20975;-80
2022/01/09 07:14:03;;;;;;;10.87;8.70;;;;;;;;;;5020920;28;21523;-80
2022/01/09 07:16:30;;;;;;;10.20;8.70;;;;;;;;;;5023522;28;20473;-80
2022/01/09 07:18:56;;;;;;;11.80;9.10;;;;;;;;;;5021716;28;20442;-80
2022/01/09 07:21:22;;;;;;;10.90;9.00;;;;;;;;;;5022472;28;20450;-79
2022/01/09 07:23:49;;;;;;;10.10;8.83;;;;;;;;;;5015004;28;20457;-79
2022/01/09 07:26:15;;;;;;;13.63;10.83;;;;;;;;;;5019752;28;20536;-80
2022/01/09 07:28:41;;;;;;;11.63;9.80;;;;;;;;;;5017038;28;20465;-79
2022/01/09 07:31:09;;;;;;;13.50;9.77;;;;;;;;;;5017510;28;20465;-80
2022/01/09 07:33:35;;;;;;;13.40;9.30;;;;;;;;;;5021044;28;20519;-80
2022/01/09 07:36:01;;;;;;;14.00;10.30;;;;;;;;;;5022870;28;20504;-80
2022/01/09 07:38:27;;;;;;;15.43;10.63;;;;;;;;;;5014177;28;21056;-80
2022/01/09 07:40:54;;;;;;;14.37;10.23;;;;;;;;;;5021618;28;20454;-80
2022/01/09 07:43:20;;;;;;;15.50;12.40;;;;;;;;;;5022601;28;20476;-80
2022/01/09 07:45:47;;;;;;;15.27;11.33;;;;;;;;;;5026771;28;20485;-80
2022/01/09 07:48:14;;;;;;;23.37;12.00;;;;;;;;;;5023395;28;20496;-80
2022/01/09 07:50:41;;;;;;;18.77;13.20;;;;;;;;;;5025800;28;20460;-80
2022/01/09 07:53:07;;;;;;;15.10;11.70;;;;;;;;;;5027858;28;20472;-80
2022/01/09 07:55:33;;;;;;;18.47;13.43;;;;;;;;;;5028786;28;20579;-80
2022/01/09 07:58:00;;;;;;;19.97;13.57;;;;;;;;;;5024864;28;20495;-79
2022/01/09 08:00:26;;;;;;;19.00;12.40;;;;;;;;;;5025344;28;20866;-80
2022/01/09 08:02:52;;;;;;;19.23;12.70;;;;;;;;;;5027316;28;20885;-80
2022/01/09 08:05:20;;;;;;;18.60;11.70;;;;;;;;;;5027212;28;20875;-80
2022/01/09 08:07:48;;;;;;;19.73;13.07;;;;;;;;;;5029613;28;20450;-80
2022/01/09 08:10:14;;;;;;;21.93;12.80;;;;;;;;;;5026564;28;20480;-80
2022/01/09 08:12:40;;;;;;;19.57;12.33;;;;;;;;;;5024970;28;20515;-80
2022/01/09 08:15:07;;;;;;;19.50;12.23;;;;;;;;;;5026685;28;20442;-81
2022/01/09 08:17:33;;;;;;;20.37;12.13;;;;;;;;;;5026956;28;20798;-80
2022/01/09 08:20:00;;;;;;;16.77;11.17;;;;;;;;;;5029422;28;20462;-81
2022/01/09 08:22:29;;;;;;;16.23;10.87;;;;;;;;;;5026306;28;20495;-83
2022/01/09 08:24:55;;;;;;;19.00;10.53;;;;;;;;;;5027865;28;20473;-80
2022/01/09 08:27:22;;;;;;;18.73;10.67;;;;;;;;;;5027044;28;21035;-82
2022/01/09 08:29:48;;;;;;;19.37;7.50;;;;;;;;;;5027586;28;20469;-81
2022/01/09 08:32:14;;;;;;;16.73;8.00;;;;;;;;;;5023719;28;20539;-81
2022/01/09 08:34:41;;;;;;;13.17;6.30;;;;;;;;;;5028194;28;20477;-80
2022/01/09 08:37:11;;;;;;;12.47;6.53;;;;;;;;;;5027087;28;20835;-80
2022/01/09 08:39:38;;;;;;;14.13;5.07;;;;;;;;;;5026308;28;20568;-80
2022/01/09 08:42:05;;;;;;;11.33;3.50;;;;;;;;;;5026756;28;20449;-81
2022/01/09 08:44:31;;;;;;;7.33;3.63;;;;;;;;;;5027530;28;20480;-80
2022/01/09 08:46:58;;;;;;;17.27;3.47;;;;;;;;;;5027323;28;20547;-80
2022/01/09 08:49:24;;;;;;;11.63;4.40;;;;;;;;;;5026048;28;20522;-81
2022/01/09 08:51:50;;;;;;;13.30;3.30;;;;;;;;;;5027657;28;20457;-81
2022/01/09 08:54:17;;;;;;;8.90;3.47;;;;;;;;;;5026689;28;20510;-80
2022/01/09 08:56:44;;;;;;;18.40;4.10;;;;;;;;;;5027861;28;20987;-80
2022/01/09 08:59:12;;;;;;;16.43;3.43;;;;;;;;;;5024565;28;20468;-80
2022/01/09 09:01:38;;;;;;;32.00;15.77;;;;;;;;;;5028004;28;20462;-81
2022/01/09 09:04:05;;;;;;;31.03;15.33;;;;;;;;;;5025757;28;20524;-81
2022/01/09 09:06:31;;;;;;;13.90;7.43;;;;;;;;;;5027862;28;20500;-80
2022/01/09 09:08:58;;;;;;;63.43;30.10;;;;;;;;;;5025275;28;20468;-80
2022/01/09 09:11:24;;;;;;;22.40;7.33;;;;;;;;;;5027279;28;20466;-80
2022/01/09 09:13:51;;;;;;;12.77;4.53;;;;;;;;;;5025886;28;20472;-80
2022/01/09 09:16:18;;;;;;;22.30;5.37;;;;;;;;;;5027636;28;20490;-80
2022/01/09 09:18:46;;;;;;;18.10;7.83;;;;;;;;;;5026854;28;20470;-80
2022/01/09 09:21:13;;;;;;;27.60;8.43;;;;;;;;;;5027712;28;20838;-80
2022/01/09 09:23:39;;;;;;;20.03;6.47;;;;;;;;;;5027135;28;21002;-80
2022/01/09 09:26:05;;;;;;;24.07;7.27;;;;;;;;;;5027004;28;20576;-81
2022/01/09 09:28:32;;;;;;;19.47;4.60;;;;;;;;;;5024873;28;20474;-81
2022/01/09 09:30:59;;;;;;;31.47;6.00;;;;;;;;;;5025247;28;20641;-80
2022/01/09 09:33:25;;;;;;;25.83;4.73;;;;;;;;;;5024223;28;21040;-81
2022/01/09 09:35:52;;;;;;;27.83;4.93;;;;;;;;;;5025610;28;20465;-80
2022/01/09 09:38:19;;;;;;;15.00;5.27;;;;;;;;;;5026409;28;21042;-80
2022/01/09 09:40:45;;;;;;;16.90;6.20;;;;;;;;;;5027695;28;20485;-80
2022/01/09 09:43:11;;;;;;;14.10;5.40;;;;;;;;;;5025455;28;20465;-81
2022/01/09 09:45:37;;;;;;;17.37;5.63;;;;;;;;;;5027625;28;20473;-80
2022/01/09 09:48:06;;;;;;;18.83;5.10;;;;;;;;;;5022760;28;20476;-80
2022/01/09 09:50:32;;;;;;;15.57;6.00;;;;;;;;;;5027089;28;20522;-80
2022/01/09 09:52:59;;;;;;;18.20;5.03;;;;;;;;;;5027824;28;20994;-81
2022/01/09 09:55:26;;;;;;;15.40;4.13;;;;;;;;;;5026199;28;20509;-81
2022/01/09 09:57:52;;;;;;;20.23;4.70;;;;;;;;;;5023033;28;20473;-80
2022/01/09 10:00:20;;;;;;;11.83;4.63;;;;;;;;;;5023709;28;20902;-79
2022/01/09 10:02:47;;;;;;;19.47;3.97;;;;;;;;;;5025210;28;20495;-80
2022/01/09 10:05:16;;;;;;;33.20;8.30;;;;;;;;;;5025531;28;20457;-80
2022/01/09 10:07:42;;;;;;;18.40;5.73;;;;;;;;;;5023608;28;20571;-78
2022/01/09 10:10:10;;;;;;;19.87;5.07;;;;;;;;;;5026900;28;20472;-81
2022/01/09 10:12:36;;;;;;;21.10;4.40;;;;;;;;;;5025320;28;20466;-80
2022/01/09 10:15:04;;;;;;;22.53;4.73;;;;;;;;;;5022684;28;20469;-81
2022/01/09 10:17:31;;;;;;;20.13;4.10;;;;;;;;;;5021069;28;20545;-80
2022/01/09 10:19:58;;;;;;;18.03;4.33;;;;;;;;;;5022126;28;20657;-81
2022/01/09 10:22:32;;;;;;;14.07;4.20;;;;;;;;;;5024956;28;20518;-80
2022/01/09 10:24:59;;;;;;;17.03;4.73;;;;;;;;;;5019999;28;20842;-78
2022/01/09 10:27:29;;;;;;;14.03;4.50;;;;;;;;;;5023176;28;20485;-81
2022/01/09 10:29:56;;;;;;;23.23;5.37;;;;;;;;;;5024768;28;20480;-80
2022/01/09 10:32:25;;;;;;;22.93;5.80;;;;;;;;;;5024805;28;20458;-80
2022/01/09 10:35:04;;;;;;;17.40;5.50;;;;;;;;;;5022765;28;20843;-80
2022/01/09 10:37:31;;;;;;;12.03;4.50;;;;;;;;;;5023540;28;20465;-80
2022/01/09 10:39:58;;;;;;;17.10;5.70;;;;;;;;;;5024015;28;20507;-81
2022/01/09 10:42:24;;;;;;;22.93;5.00;;;;;;;;;;5021786;28;20453;-80
2022/01/09 10:44:50;;;;;;;21.37;5.60;;;;;;;;;;5021225;28;20666;-81
2022/01/09 10:47:17;;;;;;;23.63;5.30;;;;;;;;;;5022416;28;20497;-80
2022/01/09 10:49:44;;;;;;;29.93;5.70;;;;;;;;;;5021714;28;21090;-80
2022/01/09 10:52:17;;;;;;;31.20;7.10;;;;;;;;;;5023644;28;20515;-81
2022/01/09 10:54:47;;;;;;;20.47;4.73;;;;;;;;;;5022194;28;20508;-80
2022/01/09 10:57:14;;;;;;;31.50;11.67;;;;;;;;;;5023733;28;20527;-80
2022/01/09 10:59:40;;;;;;;28.17;5.40;;;;;;;;;;5023234;28;20481;-80
2022/01/09 11:02:07;;;;;;;28.53;5.07;;;;;;;;;;5022274;28;20468;-80
2022/01/09 11:04:33;;;;;;;20.70;5.70;;;;;;;;;;5022835;28;20509;-80
2022/01/09 11:07:00;;;;;;;18.80;6.07;;;;;;;;;;5022200;28;20481;-81
2022/01/09 11:09:27;;;;;;;24.53;5.37;;;;;;;;;;5023300;28;21025;-80
2022/01/09 11:11:55;;;;;;;17.33;5.00;;;;;;;;;;5021821;28;20493;-80
2022/01/09 11:14:23;;;;;;;18.70;4.37;;;;;;;;;;5024007;28;20470;-80
2022/01/09 11:16:51;;;;;;;22.30;5.60;;;;;;;;;;5022124;28;20497;-80
2022/01/09 11:19:18;;;;;;;19.53;5.03;;;;;;;;;;5019867;28;20579;-80
2022/01/09 11:21:45;;;;;;;18.73;4.90;;;;;;;;;;5022344;28;20479;-79
2022/01/09 11:24:26;;;;;;;17.10;4.70;;;;;;;;;;5024634;28;20480;-79
2022/01/09 11:26:58;;;;;;;18.60;5.00;;;;;;;;;;5020725;28;21121;-80
2022/01/09 11:29:29;;;;;;;18.27;4.23;;;;;;;;;;5019957;28;20478;-80
2022/01/09 11:32:00;;;;;;;13.20;4.50;;;;;;;;;;5021458;28;20496;-81
2022/01/09 11:34:31;;;;;;;17.00;5.63;;;;;;;;;;5023860;28;20483;-80
2022/01/09 11:37:01;;;;;;;19.10;6.57;;;;;;;;;;5024026;28;20477;-81
2022/01/09 11:39:35;;;;;;;17.40;5.10;;;;;;;;;;5024809;28;20910;-80
2022/01/09 11:42:10;;;;;;;20.10;5.80;;;;;;;;;;5020430;28;20450;-80
2022/01/09 11:44:44;;;;;;;19.10;4.90;;;;;;;;;;5022359;28;20473;-80
2022/01/09 11:47:11;;;;;;;14.43;4.60;;;;;;;;;;5023192;28;20567;-80
2022/01/09 11:49:39;;;;;;;20.33;5.90;;;;;;;;;;5023093;28;20477;-81
2022/01/09 11:52:06;;;;;;;18.47;7.47;;;;;;;;;;5022704;28;20764;-80
2022/01/09 11:54:47;;;;;;;21.80;4.57;;;;;;;;;;5023826;28;20530;-81
2022/01/09 11:57:20;;;;;;;17.30;5.30;;;;;;;;;;5024484;28;20484;-80
2022/01/09 11:59:48;;;;;;;16.40;4.37;;;;;;;;;;5019400;28;20509;-80
2022/01/09 12:02:29;;;;;;;18.30;4.50;;;;;;;;;;5021965;28;20449;-79
2022/01/09 12:04:57;;;;;;;13.20;4.40;;;;;;;;;;5020374;28;20469;-80
2022/01/09 12:07:43;;;;;;;9.53;3.60;;;;;;;;;;5021812;28;20870;-80
2022/01/09 12:10:28;;;;;;;11.30;4.23;;;;;;;;;;5022137;28;20479;-79
2022/01/09 12:12:56;;;;;;;20.83;5.00;;;;;;;;;;5021674;28;20552;-80
2022/01/09 12:15:44;;;;;;;16.50;3.67;;;;;;;;;;5019860;28;20485;-80
2022/01/09 12:18:25;;;;;;;14.47;3.80;;;;;;;;;;5020797;28;20471;-81
2022/01/09 12:20:52;;;;;;;11.70;3.50;;;;;;;;;;5023813;28;20468;-80
2022/01/09 12:23:20;;;;;;;16.73;2.97;;;;;;;;;;5023572;28;20519;-79
2022/01/09 12:25:53;;;;;;;11.97;3.30;;;;;;;;;;5022687;28;20481;-80
2022/01/09 12:28:34;;;;;;;10.43;2.80;;;;;;;;;;5027355;28;20501;-80
2022/01/09 12:31:02;;;;;;;10.33;3.00;;;;;;;;;;5024956;28;20932;-80
2022/01/09 12:33:45;;;;;;;17.43;3.40;;;;;;;;;;5022121;28;20486;-81
2022/01/09 12:36:13;;;;;;;10.00;3.23;;;;;;;;;;5027392;28;20487;-79
2022/01/09 12:38:41;;;;;;;10.87;2.83;;;;;;;;;;5026582;28;20500;-80
2022/01/09 12:41:08;;;;;;;9.83;4.07;;;;;;;;;;5026545;28;20464;-80
2022/01/09 12:43:36;;;;;;;9.43;2.90;;;;;;;;;;5025991;28;21001;-80
2022/01/09 12:46:10;;;;;;;8.70;3.77;;;;;;;;;;5025974;28;20473;-81
2022/01/09 12:48:36;;;;;;;8.80;3.03;;;;;;;;;;5026177;28;20960;-80
2022/01/09 12:51:08;;;;;;;6.57;3.17;;;;;;;;;;5027583;28;20457;-80
2022/01/09 12:53:37;;;;;;;8.53;2.67;;;;;;;;;;5028586;28;20484;-80
2022/01/09 12:56:05;;;;;;;7.87;3.60;;;;;;;;;;5026517;28;20493;-80
2022/01/09 12:58:32;;;;;;;6.10;2.07;;;;;;;;;;5022632;28;20473;-80
2022/01/09 13:01:01;;;;;;;21.07;3.97;;;;;;;;;;5025994;28;20457;-80
2022/01/09 13:03:30;;;;;;;11.50;3.70;;;;;;;;;;5026101;28;20480;-80
2022/01/09 13:05:57;;;;;;;8.13;3.27;;;;;;;;;;5026992;28;20476;-81
2022/01/09 13:08:24;;;;;;;14.07;3.53;;;;;;;;;;5023755;28;20474;-80
2022/01/09 13:10:58;;;;;;;14.00;4.27;;;;;;;;;;5025939;28;20512;-80
2022/01/09 13:13:24;;;;;;;7.33;3.13;;;;;;;;;;5027000;28;20508;-80
2022/01/09 13:15:51;;;;;;;12.43;4.73;;;;;;;;;;5113013;23;20494;-89
2022/01/09 13:18:17;;;;;;;9.60;3.57;;;;;;;;;;5001950;28;20466;-90
2022/01/09 13:20:45;;;;;;;12.20;4.27;;;;;;;;;;5004789;28;20463;-87
2022/01/09 13:23:11;;;;;;;13.40;4.63;;;;;;;;;;5003686;28;20466;-88
2022/01/09 13:25:42;;;;;;;16.33;5.73;;;;;;;;;;5001690;28;20968;-86
2022/01/09 13:28:17;;;;;;;14.30;5.77;;;;;;;;;;4996582;28;20478;-86
2022/01/09 13:30:43;;;;;;;21.43;5.17;;;;;;;;;;5002192;28;20499;-88
2022/01/09 13:33:10;;;;;;;15.60;4.87;;;;;;;;;;5003198;28;20571;-88
2022/01/09 13:35:36;;;;;;;19.90;4.90;;;;;;;;;;4999334;28;20954;-87
2022/01/09 13:38:04;;;;;;;9.10;3.70;;;;;;;;;;5002136;28;20543;-87
2022/01/09 13:40:30;;;;;;;13.53;4.20;;;;;;;;;;5001385;28;20801;-87
2022/01/09 13:42:57;;;;;;;12.17;5.23;;;;;;;;;;5005178;28;20896;-87
2022/01/09 13:45:25;;;;;;;18.83;4.10;;;;;;;;;;5003050;28;20459;-88
2022/01/09 13:47:54;;;;;;;11.60;5.10;;;;;;;;;;4997241;28;20473;-87
2022/01/09 13:50:21;;;;;;;17.83;5.60;;;;;;;;;;4998176;28;20461;-84
2022/01/09 13:52:47;;;;;;;13.23;3.93;;;;;;;;;;4995034;28;20911;-84
2022/01/09 13:55:16;;;;;;;17.47;4.40;;;;;;;;;;4993130;28;20837;-85
2022/01/09 13:57:50;;;;;;;17.27;5.20;;;;;;;;;;4991627;28;20455;-84
2022/01/09 14:00:16;;;;;;;15.13;3.67;;;;;;;;;;4988698;28;20474;-84
2022/01/09 14:02:44;;;;;;;14.97;4.83;;;;;;;;;;4987970;28;20875;-84
2022/01/09 14:05:12;;;;;;;18.53;4.50;;;;;;;;;;4995767;28;20461;-84
2022/01/09 14:07:40;;;;;;;16.83;4.00;;;;;;;;;;4990309;28;20568;-85
2022/01/09 14:10:07;;;;;;;19.00;4.23;;;;;;;;;;4996609;28;20470;-84
2022/01/09 14:12:37;;;;;;;16.57;3.80;;;;;;;;;;4989383;28;20477;-85
2022/01/09 14:15:11;;;;;;;13.07;4.17;;;;;;;;;;4992957;28;21322;-85
2022/01/09 14:17:38;;;;;;;17.03;4.17;;;;;;;;;;4987892;28;20466;-85
2022/01/09 14:20:14;;;;;;;16.07;4.40;;;;;;;;;;4993742;28;20463;-87
2022/01/09 14:22:41;;;;;;;20.87;3.90;;;;;;;;;;5004785;28;20473;-88
2022/01/09 14:25:08;;;;;;;8.47;4.90;;;;;;;;;;5001351;28;20457;-88
2022/01/09 14:27:37;;;;;;;9.43;3.80;;;;;;;;;;5006648;23;21058;-81
2022/01/09 14:30:18;;;;;;;11.30;5.07;;;;;;;;;;4984707;28;20472;-80
2022/01/09 14:32:44;;;;;;;13.10;4.70;;;;;;;;;;4979183;28;20469;-79
2022/01/09 14:35:25;;;;;;;27.27;14.30;;;;;;;;;;4986308;28;20458;-80
2022/01/09 14:37:51;;;;;;;15.77;7.07;;;;;;;;;;5001675;28;20506;-81